createdAt,value
2022-09-14T00:00:28.666Z,16.39
2022-09-14T00:06:15.475Z,16.37
2022-09-14T00:11:47.436Z,16.37
2022-09-14T00:17:19.117Z,16.36
2022-09-14T00:22:50.732Z,16.35
2022-09-14T00:28:22.143Z,16.33
2022-09-14T00:33:54.411Z,16.34
2022-09-14T00:39:25.848Z,16.33
2022-09-14T00:45:10.718Z,16.30
2022-09-14T00:50:42.114Z,16.27
2022-09-14T00:56:14.681Z,16.28
2022-09-14T01:01:45.999Z,16.26
2022-09-14T01:07:26.743Z,16.25
2022-09-14T01:13:18.219Z,16.24
2022-09-14T01:18:57.032Z,16.24
2022-09-14T01:24:49.675Z,16.22
2022-09-14T01:30:22.982Z,16.18
2022-09-14T01:35:57.505Z,16.19
2022-09-14T01:41:31.537Z,16.18
2022-09-14T01:47:23.542Z,16.18
2022-09-14T01:53:41.084Z,16.16
2022-09-14T01:59:24.507Z,16.14
2022-09-14T02:05:04.163Z,16.13
2022-09-14T02:10:35.191Z,16.13
2022-09-14T02:16:06.114Z,16.12
2022-09-14T02:21:38.888Z,16.13
2022-09-14T02:27:10.225Z,16.10
2022-09-14T02:32:53.626Z,16.09
2022-09-14T02:38:41.236Z,16.08
2022-09-14T02:44:22.030Z,16.09
2022-09-14T02:50:41.159Z,16.08
2022-09-14T02:56:12.861Z,16.07
2022-09-14T03:01:44.081Z,16.06
2022-09-14T03:07:15.189Z,16.04
2022-09-14T03:12:46.146Z,16.05
2022-09-14T03:18:18.111Z,16.05
2022-09-14T03:23:51.382Z,16.03
2022-09-14T03:29:22.788Z,16.03
2022-09-14T03:34:54.466Z,16.02
2022-09-14T03:40:25.875Z,16.01
2022-09-14T03:45:57.427Z,16.01
2022-09-14T03:51:28.494Z,16.00
2022-09-14T03:56:59.639Z,16.00
2022-09-14T04:02:30.652Z,15.99
2022-09-14T04:08:02.700Z,15.97
2022-09-14T04:13:34.601Z,15.97
2022-09-14T04:19:06.744Z,15.96
2022-09-14T04:24:37.800Z,15.94
2022-09-14T04:30:09.488Z,15.94
2022-09-14T04:35:40.417Z,15.93
2022-09-14T04:41:14.226Z,15.93
2022-09-14T04:46:47.275Z,15.91
2022-09-14T04:52:18.372Z,15.90
2022-09-14T04:57:49.716Z,15.88
2022-09-14T05:03:20.649Z,15.88
2022-09-14T05:08:52.516Z,15.88
2022-09-14T05:14:23.873Z,15.86
2022-09-14T05:19:54.989Z,15.86
2022-09-14T05:25:27.646Z,15.85
2022-09-14T05:30:58.932Z,15.84
2022-09-14T05:36:30.128Z,15.84
2022-09-14T05:42:01.373Z,15.84
2022-09-14T05:47:34.893Z,15.84
2022-09-14T05:53:10.190Z,15.83
2022-09-14T05:58:41.761Z,15.81
2022-09-14T06:04:13.284Z,15.81
2022-09-14T06:09:44.411Z,15.81
2022-09-14T06:15:15.602Z,15.82
2022-09-14T06:20:53.378Z,15.83
2022-09-14T06:26:26.020Z,15.84
2022-09-14T06:32:04.683Z,15.85
2022-09-14T06:37:35.593Z,15.85
2022-09-14T06:43:06.538Z,15.87
2022-09-14T06:48:44.388Z,15.86
2022-09-14T06:54:16.765Z,15.87
2022-09-14T06:59:47.887Z,15.88
2022-09-14T07:05:20.657Z,15.90
2022-09-14T07:10:59.058Z,15.89
2022-09-14T07:16:31.839Z,15.89
2022-09-14T07:22:03.203Z,15.91
2022-09-14T07:27:34.853Z,15.91
2022-09-14T07:33:06.245Z,15.92
2022-09-14T07:38:51.759Z,15.93
2022-09-14T07:44:23.599Z,15.94
2022-09-14T07:49:54.435Z,15.96
2022-09-14T07:55:25.638Z,15.97
2022-09-14T08:01:01.259Z,15.94
2022-09-14T08:06:32.691Z,15.93
2022-09-14T08:12:04.822Z,15.87
2022-09-14T08:17:35.951Z,15.85
2022-09-14T08:23:07.038Z,15.86
2022-09-14T08:28:39.196Z,15.82
2022-09-14T08:34:10.187Z,15.82
2022-09-14T08:39:41.355Z,15.81
2022-09-14T08:45:16.817Z,15.79
2022-09-14T08:50:47.611Z,15.81
2022-09-14T08:56:28.776Z,15.80
2022-09-14T09:02:33.668Z,15.82
2022-09-14T09:08:13.568Z,15.82
2022-09-14T09:13:46.288Z,15.85
2022-09-14T09:19:39.102Z,15.85
2022-09-14T09:25:23.403Z,15.85
2022-09-14T09:30:55.813Z,15.84
2022-09-14T09:36:41.240Z,15.82
2022-09-14T09:42:27.185Z,15.81
2022-09-14T09:47:58.178Z,15.81
2022-09-14T09:53:29.613Z,15.80
2022-09-14T09:59:00.771Z,15.81
2022-09-14T10:04:33.274Z,15.85
2022-09-14T10:10:13.983Z,15.90
2022-09-14T10:15:46.896Z,15.94
2022-09-14T10:21:23.032Z,15.97
2022-09-14T10:26:53.944Z,16.00
2022-09-14T10:32:27.235Z,16.00
2022-09-14T10:38:25.861Z,16.02
2022-09-14T10:44:19.671Z,16.07
2022-09-14T10:50:11.814Z,16.10
2022-09-14T10:56:02.002Z,16.12
2022-09-14T11:01:51.694Z,16.14
2022-09-14T11:07:23.032Z,16.14
2022-09-14T11:13:03.007Z,16.19
2022-09-14T11:18:40.037Z,16.17
2022-09-14T11:24:38.659Z,16.20
2022-09-14T11:30:19.700Z,16.20
2022-09-14T11:35:55.311Z,16.24
2022-09-14T11:41:39.826Z,16.27
2022-09-14T11:47:10.569Z,16.30
2022-09-14T11:52:41.544Z,16.32
2022-09-14T11:58:31.052Z,16.34
2022-09-14T12:04:12.379Z,16.35
2022-09-14T12:09:44.915Z,16.39
2022-09-14T12:15:36.621Z,16.38
2022-09-14T12:21:20.554Z,16.42
2022-09-14T12:26:52.571Z,16.48
2022-09-14T12:32:43.643Z,16.54
2022-09-14T12:38:30.382Z,16.57
2022-09-14T12:44:01.754Z,16.62
2022-09-14T12:49:35.643Z,16.66
2022-09-14T12:55:21.438Z,16.68
2022-09-14T13:01:11.140Z,16.73
2022-09-14T13:06:46.863Z,16.79
2022-09-14T13:12:41.332Z,16.82
2022-09-14T13:18:18.275Z,16.85
2022-09-14T13:23:52.218Z,16.86
2022-09-14T13:29:25.145Z,16.89
2022-09-14T13:34:56.306Z,16.89
2022-09-14T13:40:29.939Z,16.91
2022-09-14T13:46:01.499Z,16.94
2022-09-14T13:51:34.075Z,16.96
2022-09-14T13:57:12.855Z,16.97
2022-09-14T14:02:49.259Z,16.98
2022-09-14T14:08:29.726Z,17.00
2022-09-14T14:14:16.034Z,17.02
2022-09-14T14:19:48.260Z,17.01
2022-09-14T14:25:24.996Z,17.02
2022-09-14T14:30:58.333Z,17.02
2022-09-14T14:36:29.383Z,17.02
2022-09-14T14:42:02.140Z,17.01
2022-09-14T14:47:33.783Z,17.01
2022-09-14T14:53:05.725Z,17.01
2022-09-14T14:58:46.642Z,16.99
2022-09-14T15:04:19.027Z,17.00
2022-09-14T15:09:50.382Z,17.00
2022-09-14T15:15:26.342Z,17.01
2022-09-14T15:20:57.355Z,17.01
2022-09-14T15:26:28.865Z,17.01
2022-09-14T15:32:00.531Z,17.01
2022-09-14T15:37:31.682Z,17.00
2022-09-14T15:43:04.406Z,17.01
2022-09-14T15:48:35.445Z,17.00
2022-09-14T15:54:06.730Z,17.01
2022-09-14T15:59:38.341Z,16.98
2022-09-14T16:05:09.364Z,17.01
2022-09-14T16:10:40.115Z,17.00
2022-09-14T16:16:13.402Z,17.00
2022-09-14T16:21:44.588Z,16.99
2022-09-14T16:27:16.447Z,16.98
2022-09-14T16:32:48.398Z,17.00
2022-09-14T16:38:19.343Z,16.99
2022-09-14T16:43:59.224Z,16.98
2022-09-14T16:49:30.315Z,16.97
2022-09-14T16:55:01.422Z,16.97
2022-09-14T17:00:35.629Z,16.96
2022-09-14T17:06:10.348Z,16.95
2022-09-14T17:11:42.786Z,16.94
2022-09-14T17:17:14.200Z,16.93
2022-09-14T17:22:45.415Z,16.93
2022-09-14T17:28:16.808Z,16.93
2022-09-14T17:33:48.009Z,16.91
2022-09-14T17:39:19.137Z,16.91
2022-09-14T17:44:50.237Z,16.91
2022-09-14T17:50:24.049Z,16.90
2022-09-14T17:56:02.792Z,16.89
2022-09-14T18:01:34.887Z,16.88
2022-09-14T18:07:06.047Z,16.88
2022-09-14T18:12:39.351Z,16.87
2022-09-14T18:18:10.324Z,16.85
2022-09-14T18:23:41.393Z,16.84
2022-09-14T18:29:15.052Z,16.84
2022-09-14T18:34:46.232Z,16.85
2022-09-14T18:40:20.301Z,16.83
2022-09-14T18:45:53.390Z,16.84
2022-09-14T18:51:25.689Z,16.83
2022-09-14T18:56:56.631Z,16.84
2022-09-14T19:02:27.925Z,16.83
2022-09-14T19:08:00.072Z,16.84
2022-09-14T19:13:30.952Z,16.83
2022-09-14T19:19:02.210Z,16.85
2022-09-14T19:24:33.616Z,16.83
2022-09-14T19:30:05.210Z,16.82
2022-09-14T19:35:37.305Z,16.83
2022-09-14T19:41:08.664Z,16.82
2022-09-14T19:46:40.645Z,16.82
2022-09-14T19:52:11.830Z,16.81
2022-09-14T19:57:42.957Z,16.82
2022-09-14T20:03:13.843Z,16.81
2022-09-14T20:08:46.867Z,16.80
2022-09-14T20:14:20.471Z,16.77
2022-09-14T20:19:51.303Z,16.76
2022-09-14T20:25:22.200Z,16.73
2022-09-14T20:30:59.246Z,16.71
2022-09-14T20:36:30.248Z,16.70
2022-09-14T20:42:01.608Z,16.68
2022-09-14T20:47:33.001Z,16.66
2022-09-14T20:53:04.346Z,16.65
2022-09-14T20:58:36.277Z,16.64
2022-09-14T21:04:09.931Z,16.62
2022-09-14T21:09:40.868Z,16.61
2022-09-14T21:15:12.058Z,16.58
2022-09-14T21:20:43.039Z,16.58
2022-09-14T21:26:14.240Z,16.55
2022-09-14T21:31:45.174Z,16.54
2022-09-14T21:37:16.659Z,16.50
2022-09-14T21:42:50.722Z,16.50
2022-09-14T21:48:21.911Z,16.47
2022-09-14T21:53:57.939Z,16.46
2022-09-14T21:59:29.315Z,16.45
2022-09-14T22:05:00.653Z,16.44
2022-09-14T22:10:34.724Z,16.40
2022-09-14T22:16:17.069Z,16.40
2022-09-14T22:21:48.881Z,16.39
2022-09-14T22:27:20.275Z,16.37
2022-09-14T22:32:51.484Z,16.36
2022-09-14T22:38:23.903Z,16.35
2022-09-14T22:43:55.670Z,16.34
2022-09-14T22:49:26.876Z,16.32
2022-09-14T22:54:57.854Z,16.32
2022-09-14T23:00:29.792Z,16.30
2022-09-14T23:06:00.703Z,16.28
2022-09-14T23:11:31.980Z,16.28
2022-09-14T23:17:03.370Z,16.26
2022-09-14T23:22:34.472Z,16.25
2022-09-14T23:28:06.747Z,16.25
2022-09-14T23:33:37.824Z,16.23
2022-09-14T23:39:08.705Z,16.21
2022-09-14T23:44:39.859Z,16.21
2022-09-14T23:50:11.147Z,16.20
2022-09-14T23:55:42.166Z,16.19
